createdAt,value
2019-04-10T00:00:23.183Z,63.50
2019-04-10T00:02:50.553Z,66.37
2019-04-10T00:05:18.005Z,73.80
2019-04-10T00:07:45.836Z,61.13
2019-04-10T00:10:13.899Z,61.20
2019-04-10T00:12:42.293Z,64.87
2019-04-10T00:15:09.721Z,61.73
2019-04-10T00:17:37.513Z,66.03
2019-04-10T00:20:05.100Z,65.60
2019-04-10T00:22:32.432Z,68.00
2019-04-10T00:25:00.143Z,70.77
2019-04-10T00:27:28.402Z,62.37
2019-04-10T00:29:56.481Z,62.50
2019-04-10T00:32:24.087Z,66.83
2019-04-10T00:34:51.467Z,62.13
2019-04-10T00:37:23.947Z,64.97
2019-04-10T00:39:47.828Z,62.90
2019-04-10T00:42:15.111Z,63.63
2019-04-10T00:44:42.474Z,59.13
2019-04-10T00:47:10.744Z,58.30
2019-04-10T00:49:38.307Z,61.50
2019-04-10T00:52:06.029Z,57.00
2019-04-10T00:54:33.323Z,58.30
2019-04-10T00:57:01.055Z,59.43
2019-04-10T00:59:28.513Z,62.80
2019-04-10T01:01:56.301Z,61.07
2019-04-10T01:04:24.526Z,62.53
2019-04-10T01:06:52.557Z,65.60
2019-04-10T01:09:20.173Z,62.27
2019-04-10T01:11:47.920Z,60.73
2019-04-10T01:14:15.864Z,66.37
2019-04-10T01:16:43.977Z,65.50
2019-04-10T01:19:12.072Z,70.90
2019-04-10T01:21:39.568Z,64.80
2019-04-10T01:24:06.982Z,67.57
2019-04-10T01:26:34.982Z,65.67
2019-04-10T01:29:02.973Z,66.63
2019-04-10T01:31:30.967Z,63.47
2019-04-10T01:33:58.483Z,71.63
2019-04-10T01:36:26.914Z,63.80
2019-04-10T01:38:54.350Z,60.70
2019-04-10T01:41:21.806Z,59.17
2019-04-10T01:43:49.199Z,64.33
2019-04-10T01:46:16.595Z,67.53
2019-04-10T01:48:44.059Z,63.40
2019-04-10T01:51:11.422Z,62.47
2019-04-10T01:53:38.784Z,64.77
2019-04-10T01:56:20.380Z,62.67
2019-04-10T01:58:37.011Z,62.67
2019-04-10T02:01:14.888Z,56.80
2019-04-10T02:03:42.621Z,62.87
2019-04-10T02:06:11.325Z,61.83
2019-04-10T02:08:40.231Z,58.27
2019-04-10T02:11:08.817Z,59.53
2019-04-10T02:13:36.267Z,60.67
2019-04-10T02:16:03.649Z,57.17
2019-04-10T02:18:30.871Z,54.97
2019-04-10T02:20:59.077Z,60.23
2019-04-10T02:23:26.571Z,61.27
2019-04-10T02:25:54.830Z,57.17
2019-04-10T02:28:22.769Z,57.73
2019-04-10T02:30:50.247Z,54.67
2019-04-10T02:33:17.916Z,52.73
2019-04-10T02:35:45.559Z,53.80
2019-04-10T02:38:30.931Z,54.73
2019-04-10T02:40:43.251Z,54.13
2019-04-10T02:43:12.567Z,57.43
2019-04-10T02:45:41.922Z,46.43
2019-04-10T02:48:10.061Z,51.77
2019-04-10T02:50:38.286Z,44.57
2019-04-10T02:53:06.070Z,43.23
2019-04-10T02:55:35.770Z,43.13
2019-04-10T02:58:03.198Z,48.00
2019-04-10T03:00:30.532Z,47.60
2019-04-10T03:02:59.302Z,41.93
2019-04-10T03:05:27.353Z,40.63
2019-04-10T03:07:55.926Z,42.00
2019-04-10T03:10:29.712Z,39.33
2019-04-10T03:12:52.766Z,40.93
2019-04-10T03:15:20.796Z,39.27
2019-04-10T03:17:48.398Z,43.53
2019-04-10T03:20:16.213Z,39.33
2019-04-10T03:22:43.570Z,42.83
2019-04-10T03:25:10.955Z,37.03
2019-04-10T03:27:38.712Z,38.70
2019-04-10T03:30:07.680Z,34.60
2019-04-10T03:32:55.861Z,46.07
2019-04-10T03:35:26.968Z,31.90
2019-04-10T03:37:54.417Z,32.87
2019-04-10T03:40:21.755Z,33.37
2019-04-10T03:42:49.608Z,32.37
2019-04-10T03:45:17.016Z,35.27
2019-04-10T03:47:44.277Z,28.70
2019-04-10T03:50:11.533Z,36.20
2019-04-10T03:52:38.783Z,31.73
2019-04-10T03:55:06.071Z,40.43
2019-04-10T03:57:34.299Z,31.83
2019-04-10T04:00:01.895Z,31.73
2019-04-10T04:02:29.493Z,30.00
2019-04-10T04:04:57.871Z,28.60
2019-04-10T04:07:26.997Z,32.17
2019-04-10T04:09:54.589Z,29.13
2019-04-10T04:12:22.349Z,27.57
2019-04-10T04:14:49.767Z,28.73
2019-04-10T04:17:17.025Z,24.67
2019-04-10T04:19:44.287Z,29.83
2019-04-10T04:22:12.509Z,25.33
2019-04-10T04:24:40.049Z,29.10
2019-04-10T04:27:07.596Z,31.17
2019-04-10T04:29:34.851Z,30.37
2019-04-10T04:32:02.254Z,29.70
2019-04-10T04:34:29.606Z,29.73
2019-04-10T04:36:56.918Z,28.13
2019-04-10T04:39:28.115Z,35.10
2019-04-10T04:41:54.437Z,29.20
2019-04-10T04:44:22.213Z,33.83
2019-04-10T04:46:50.589Z,35.20
2019-04-10T04:49:18.224Z,37.77
2019-04-10T04:51:45.743Z,30.63
2019-04-10T04:54:13.124Z,29.93
2019-04-10T04:56:40.455Z,27.53
2019-04-10T04:59:08.029Z,34.80
2019-04-10T05:01:35.998Z,30.47
2019-04-10T05:04:03.536Z,30.93
2019-04-10T05:06:30.921Z,35.07
2019-04-10T05:08:59.177Z,32.03
2019-04-10T05:11:26.671Z,28.37
2019-04-10T05:13:55.844Z,29.67
2019-04-10T05:16:23.259Z,34.40
2019-04-10T05:18:50.507Z,29.30
2019-04-10T05:21:17.778Z,35.50
2019-04-10T05:23:45.020Z,32.83
2019-04-10T05:26:12.376Z,30.50
2019-04-10T05:28:40.238Z,28.73
2019-04-10T05:31:10.899Z,26.73
2019-04-10T05:33:38.693Z,29.80
2019-04-10T05:36:06.947Z,29.37
2019-04-10T05:38:35.443Z,33.47
2019-04-10T05:41:03.393Z,27.70
2019-04-10T05:43:30.724Z,27.07
2019-04-10T05:45:59.191Z,33.47
2019-04-10T05:48:27.839Z,34.33
2019-04-10T05:51:02.246Z,34.67
2019-04-10T05:53:24.668Z,34.77
2019-04-10T05:55:52.048Z,33.30
2019-04-10T05:58:19.630Z,27.47
2019-04-10T06:00:47.861Z,27.07
2019-04-10T06:03:15.211Z,31.30
2019-04-10T06:05:42.489Z,28.93
2019-04-10T06:08:09.884Z,30.63
2019-04-10T06:10:37.243Z,30.97
2019-04-10T06:13:04.703Z,33.17
2019-04-10T06:15:32.063Z,33.83
2019-04-10T06:17:59.332Z,29.93
2019-04-10T06:20:29.270Z,29.60
2019-04-10T06:22:56.953Z,31.90
2019-04-10T06:25:25.005Z,27.47
2019-04-10T06:27:52.749Z,29.00
2019-04-10T06:30:20.053Z,31.17
2019-04-10T06:32:47.387Z,31.37
2019-04-10T06:35:15.597Z,27.43
2019-04-10T06:37:43.181Z,26.60
2019-04-10T06:40:17.105Z,27.80
2019-04-10T06:42:48.298Z,26.23
2019-04-10T06:45:09.809Z,26.33
2019-04-10T06:47:38.157Z,26.83
2019-04-10T06:50:06.473Z,31.30
2019-04-10T06:52:34.542Z,26.00
2019-04-10T06:55:03.027Z,29.77
2019-04-10T06:57:30.583Z,30.83
2019-04-10T06:59:59.735Z,28.73
2019-04-10T07:02:29.535Z,26.60
2019-04-10T07:05:02.998Z,29.80
2019-04-10T07:07:35.355Z,28.47
2019-04-10T07:09:56.220Z,28.43
2019-04-10T07:12:24.467Z,25.07
2019-04-10T07:14:56.967Z,30.90
2019-04-10T07:17:22.253Z,28.60
2019-04-10T07:19:49.505Z,32.20
2019-04-10T07:22:17.529Z,27.87
2019-04-10T07:24:48.116Z,35.10
2019-04-10T07:27:16.451Z,29.27
2019-04-10T07:29:50.643Z,37.80
2019-04-10T07:32:18.304Z,38.87
2019-04-10T07:34:47.157Z,29.17
2019-04-10T07:37:20.233Z,30.97
2019-04-10T07:39:45.074Z,31.47
2019-04-10T07:42:25.291Z,34.67
2019-04-10T07:44:42.785Z,30.83
2019-04-10T07:47:11.382Z,29.93
2019-04-10T07:49:39.969Z,32.87
2019-04-10T07:52:08.320Z,32.93
2019-04-10T07:54:36.082Z,34.97
2019-04-10T07:57:04.295Z,28.73
2019-04-10T07:59:35.253Z,32.43
2019-04-10T08:02:05.962Z,29.80
2019-04-10T08:04:33.176Z,36.67
2019-04-10T08:07:00.987Z,38.53
2019-04-10T08:09:29.163Z,32.33
2019-04-10T08:11:56.964Z,30.10
2019-04-10T08:14:25.787Z,31.23
2019-04-10T08:16:53.316Z,29.70
2019-04-10T08:19:20.811Z,33.67
2019-04-10T08:21:49.956Z,32.87
2019-04-10T08:24:18.163Z,27.90
2019-04-10T08:26:45.764Z,28.57
2019-04-10T08:29:14.217Z,34.60
2019-04-10T08:31:41.916Z,26.40
2019-04-10T08:34:09.456Z,32.03
2019-04-10T08:36:37.520Z,27.90
2019-04-10T08:39:06.791Z,33.57
2019-04-10T08:41:35.575Z,35.93
2019-04-10T08:44:04.403Z,33.97
2019-04-10T08:46:32.281Z,31.17
2019-04-10T08:49:00.712Z,26.63
2019-04-10T08:51:29.177Z,28.10
2019-04-10T08:53:56.901Z,25.47
2019-04-10T08:56:25.160Z,30.10
2019-04-10T08:58:52.675Z,28.73
2019-04-10T09:01:22.950Z,27.37
2019-04-10T09:03:51.100Z,30.63
2019-04-10T09:06:19.498Z,25.57
2019-04-10T09:08:47.185Z,26.60
2019-04-10T09:11:18.612Z,27.70
2019-04-10T09:13:44.463Z,25.80
2019-04-10T09:16:12.189Z,28.10
2019-04-10T09:18:39.656Z,28.07
2019-04-10T09:21:07.161Z,23.97
2019-04-10T09:23:42.862Z,26.93
2019-04-10T09:26:05.832Z,26.13
2019-04-10T09:28:33.338Z,28.27
2019-04-10T09:31:01.683Z,26.10
2019-04-10T09:33:31.980Z,29.03
2019-04-10T09:35:59.092Z,27.33
2019-04-10T09:38:26.758Z,24.87
2019-04-10T09:40:55.894Z,23.93
2019-04-10T09:43:23.477Z,29.10
2019-04-10T09:45:51.512Z,24.60
2019-04-10T09:48:19.103Z,28.37
2019-04-10T09:50:46.441Z,26.23
2019-04-10T09:53:14.970Z,29.17
2019-04-10T09:55:42.626Z,24.17
2019-04-10T09:58:11.204Z,29.17
2019-04-10T10:00:40.146Z,26.43
2019-04-10T10:03:07.936Z,23.87
2019-04-10T10:05:35.353Z,22.33
2019-04-10T10:08:02.668Z,21.73
2019-04-10T10:10:31.396Z,22.57
2019-04-10T10:12:59.170Z,23.20
2019-04-10T10:15:27.411Z,21.93
2019-04-10T10:17:55.108Z,25.67
2019-04-10T10:20:23.802Z,24.27
2019-04-10T10:22:51.815Z,21.57
2019-04-10T10:25:19.479Z,23.30
2019-04-10T10:27:46.942Z,21.43
2019-04-10T10:30:15.473Z,21.83
2019-04-10T10:32:43.783Z,23.97
2019-04-10T10:35:11.647Z,22.73
2019-04-10T10:37:39.059Z,28.80
2019-04-10T10:40:08.880Z,20.07
2019-04-10T10:42:38.606Z,24.00
2019-04-10T10:45:07.202Z,20.27
2019-04-10T10:47:34.600Z,20.87
2019-04-10T10:50:02.049Z,20.53
2019-04-10T10:52:29.441Z,21.60
2019-04-10T10:54:56.996Z,20.87
2019-04-10T10:57:24.863Z,20.77
2019-04-10T10:59:52.228Z,23.97
2019-04-10T11:02:19.663Z,20.37
2019-04-10T11:04:47.550Z,22.67
2019-04-10T11:07:14.903Z,22.67
2019-04-10T11:09:42.191Z,21.50
2019-04-10T11:12:10.043Z,23.13
2019-04-10T11:14:37.427Z,22.50
2019-04-10T11:17:05.416Z,23.37
2019-04-10T11:19:33.026Z,23.63
2019-04-10T11:22:00.385Z,26.67
2019-04-10T11:24:28.369Z,29.10
2019-04-10T11:26:55.873Z,20.72
2019-04-10T11:29:23.784Z,22.83
2019-04-10T11:31:51.329Z,21.10
2019-04-10T11:34:18.928Z,22.70
2019-04-10T11:36:46.513Z,19.45
2019-04-10T11:39:22.109Z,21.17
2019-04-10T11:41:43.384Z,21.52
2019-04-10T11:44:11.513Z,16.62
2019-04-10T11:46:41.871Z,17.00
2019-04-10T11:49:11.142Z,15.93
2019-04-10T11:51:38.910Z,14.28
2019-04-10T11:54:11.009Z,16.37
2019-04-10T11:56:36.313Z,17.55
2019-04-10T11:59:07.619Z,15.55
2019-04-10T12:05:25.377Z,16.67
2019-04-10T12:08:17.882Z,17.52
2019-04-10T12:13:10.528Z,16.60
2019-04-10T12:15:38.644Z,19.07
2019-04-10T12:18:06.590Z,16.35
2019-04-10T12:20:33.968Z,17.67
2019-04-10T12:23:01.241Z,15.45
2019-04-10T12:25:29.062Z,16.50
2019-04-10T12:27:56.423Z,18.82
2019-04-10T12:30:23.688Z,16.82
2019-04-10T12:32:51.029Z,16.40
2019-04-10T12:35:18.348Z,16.57
2019-04-10T12:37:45.659Z,17.07
2019-04-10T12:40:13.954Z,15.75
2019-04-10T12:42:41.388Z,18.50
2019-04-10T12:45:09.031Z,15.83
2019-04-10T12:47:36.364Z,15.60
2019-04-10T12:50:03.979Z,17.05
2019-04-10T12:52:32.318Z,17.00
2019-04-10T12:54:59.800Z,17.60
2019-04-10T12:57:27.146Z,15.85
2019-04-10T13:00:00.707Z,15.90
2019-04-10T13:02:23.630Z,16.97
2019-04-10T13:04:50.894Z,16.40
2019-04-10T13:07:19.195Z,15.20
2019-04-10T13:09:46.723Z,17.67
2019-04-10T13:12:13.988Z,17.10
2019-04-10T13:14:41.290Z,16.90
2019-04-10T13:17:08.909Z,18.02
2019-04-10T13:19:37.427Z,14.47
2019-04-10T13:22:04.939Z,16.87
2019-04-10T13:24:33.320Z,20.60
2019-04-10T13:27:01.696Z,14.58
2019-04-10T13:29:30.052Z,15.72
2019-04-10T13:31:57.372Z,16.17
2019-04-10T13:34:24.999Z,15.55
2019-04-10T13:36:52.243Z,13.90
2019-04-10T13:39:20.429Z,18.50
2019-04-10T13:41:48.394Z,15.90
2019-04-10T13:44:16.308Z,13.68
2019-04-10T13:46:44.688Z,15.68
2019-04-10T13:49:12.250Z,14.20
2019-04-10T13:51:39.599Z,15.13
2019-04-10T13:54:06.864Z,13.75
2019-04-10T13:56:34.122Z,15.48
2019-04-10T13:59:01.605Z,14.40
2019-04-10T14:01:31.534Z,17.25
2019-04-10T14:04:00.961Z,15.72
2019-04-10T14:06:29.441Z,13.43
2019-04-10T14:09:12.034Z,15.48
2019-04-10T14:11:27.070Z,15.40
2019-04-10T14:13:54.484Z,16.60
2019-04-10T14:16:22.727Z,15.75
2019-04-10T14:18:50.863Z,14.90
2019-04-10T14:21:18.873Z,18.35
2019-04-10T14:23:47.225Z,14.78
2019-04-10T14:26:30.134Z,15.40
2019-04-10T14:28:55.491Z,13.35
2019-04-10T14:31:26.583Z,13.00
2019-04-10T14:33:54.041Z,14.28
2019-04-10T14:36:22.305Z,19.62
2019-04-10T14:38:49.839Z,18.73
2019-04-10T14:41:17.870Z,16.55
2019-04-10T14:43:46.652Z,15.68
2019-04-10T14:46:14.572Z,14.55
2019-04-10T14:48:42.454Z,15.45
2019-04-10T14:51:10.266Z,16.30
2019-04-10T14:53:37.899Z,17.02
2019-04-10T14:56:06.898Z,17.95
2019-04-10T14:58:35.418Z,14.93
2019-04-10T15:01:06.842Z,16.87
2019-04-10T15:03:32.840Z,14.07
2019-04-10T15:06:02.221Z,16.20
2019-04-10T15:08:29.586Z,16.12
2019-04-10T15:10:56.853Z,15.93
2019-04-10T15:13:24.424Z,22.15
2019-04-10T15:15:52.943Z,16.55
2019-04-10T15:18:20.476Z,17.12
2019-04-10T15:20:47.839Z,16.12
2019-04-10T15:23:16.334Z,17.40
2019-04-10T15:25:51.170Z,18.48
2019-04-10T15:28:18.751Z,14.07
2019-04-10T15:30:49.271Z,13.90
2019-04-10T15:33:16.511Z,16.73
2019-04-10T15:35:44.743Z,16.10
2019-04-10T15:38:12.129Z,20.37
2019-04-10T15:40:39.410Z,15.75
2019-04-10T15:43:06.877Z,20.35
2019-04-10T15:45:34.160Z,18.97
2019-04-10T15:48:03.228Z,18.63
2019-04-10T15:50:30.774Z,16.05
2019-04-10T15:52:58.459Z,15.47
2019-04-10T15:55:25.874Z,14.97
2019-04-10T15:57:56.836Z,14.87
2019-04-10T16:00:23.200Z,13.73
2019-04-10T16:02:51.001Z,17.67
2019-04-10T16:05:19.452Z,14.40
2019-04-10T16:07:47.028Z,19.63
2019-04-10T16:10:43.275Z,13.77
2019-04-10T16:13:34.559Z,14.00
2019-04-10T16:16:27.755Z,14.13
2019-04-10T16:19:04.625Z,15.27
2019-04-10T16:21:32.181Z,17.80
2019-04-10T16:24:04.608Z,18.77
2019-04-10T16:26:33.532Z,13.60
2019-04-10T16:29:02.014Z,17.07
2019-04-10T16:31:29.839Z,19.33
2019-04-10T16:33:57.229Z,13.87
2019-04-10T16:36:26.355Z,23.20
2019-04-10T16:39:13.499Z,13.53
2019-04-10T16:41:41.786Z,13.17
2019-04-10T16:44:09.205Z,14.63
2019-04-10T16:46:36.576Z,16.63
2019-04-10T16:49:04.405Z,20.90
2019-04-10T16:51:32.294Z,16.53
2019-04-10T16:54:00.157Z,17.33
2019-04-10T16:56:27.593Z,18.07
2019-04-10T16:58:58.367Z,16.67
2019-04-10T17:01:26.819Z,12.40
2019-04-10T17:03:54.338Z,17.03
2019-04-10T17:06:21.913Z,14.00
2019-04-10T17:08:49.395Z,17.13
2019-04-10T17:11:16.802Z,18.17
2019-04-10T17:13:48.843Z,26.57
2019-04-10T17:16:17.636Z,18.43
2019-04-10T17:18:45.526Z,14.43
2019-04-10T17:21:13.108Z,12.43
2019-04-10T17:23:40.995Z,14.40
2019-04-10T17:26:09.110Z,14.70
2019-04-10T17:28:36.523Z,17.30
2019-04-10T17:31:04.630Z,17.90
2019-04-10T17:33:32.311Z,16.27
2019-04-10T17:36:00.149Z,14.80
2019-04-10T17:38:28.718Z,17.07
2019-04-10T17:40:58.767Z,13.73
2019-04-10T17:43:26.705Z,21.57
2019-04-10T17:45:55.515Z,13.37
2019-04-10T17:48:22.939Z,18.60
2019-04-10T17:50:50.194Z,15.43
2019-04-10T17:53:18.469Z,16.93
2019-04-10T17:55:45.928Z,15.57
2019-04-10T17:58:13.650Z,12.73
2019-04-10T18:00:43.306Z,15.03
2019-04-10T18:03:11.045Z,16.30
2019-04-10T18:05:39.154Z,15.70
2019-04-10T18:08:06.706Z,14.40
2019-04-10T18:10:43.555Z,15.33
2019-04-10T18:13:03.388Z,15.23
2019-04-10T18:15:30.871Z,16.67
2019-04-10T18:17:58.142Z,15.00
2019-04-10T18:20:26.262Z,18.93
2019-04-10T18:22:53.688Z,17.53
2019-04-10T18:25:22.118Z,13.60
2019-04-10T18:27:49.512Z,13.93
2019-04-10T18:30:16.824Z,16.57
2019-04-10T18:32:44.214Z,18.47
2019-04-10T18:35:11.451Z,12.70
2019-04-10T18:37:39.188Z,14.80
2019-04-10T18:40:07.490Z,16.17
2019-04-10T18:42:35.832Z,20.20
2019-04-10T18:45:05.791Z,17.57
2019-04-10T18:47:34.973Z,12.53
2019-04-10T18:50:04.318Z,14.87
2019-04-10T18:52:32.147Z,16.73
2019-04-10T18:55:00.412Z,14.50
2019-04-10T18:57:31.292Z,13.83
2019-04-10T19:00:18.777Z,12.73
2019-04-10T19:02:59.256Z,18.43
2019-04-10T19:05:30.347Z,12.80
2019-04-10T19:07:58.630Z,13.30
2019-04-10T19:10:26.389Z,12.93
2019-04-10T19:12:53.920Z,14.53
2019-04-10T19:15:22.429Z,13.17
2019-04-10T19:17:50.950Z,12.13
2019-04-10T19:20:18.379Z,13.97
2019-04-10T19:22:46.804Z,12.60
2019-04-10T19:25:14.571Z,18.57
2019-04-10T19:27:42.515Z,16.97
2019-04-10T19:30:28.904Z,13.53
2019-04-10T19:32:57.377Z,14.30
2019-04-10T19:35:28.589Z,19.97
2019-04-10T19:37:56.729Z,19.90
2019-04-10T19:40:24.468Z,18.10
2019-04-10T19:42:51.756Z,13.73
2019-04-10T19:45:19.509Z,17.67
2019-04-10T19:47:46.956Z,13.93
2019-04-10T19:50:23.432Z,14.37
2019-04-10T19:52:51.247Z,14.87
2019-04-10T19:55:20.547Z,12.97
2019-04-10T19:57:47.867Z,16.37
2019-04-10T20:00:18.113Z,19.03
2019-04-10T20:02:46.666Z,12.03
2019-04-10T20:05:15.023Z,13.90
2019-04-10T20:07:43.071Z,20.63
2019-04-10T20:10:10.959Z,16.67
2019-04-10T20:12:38.332Z,16.43
2019-04-10T20:15:12.184Z,15.20
2019-04-10T20:17:39.925Z,15.17
2019-04-10T20:20:10.912Z,16.03
2019-04-10T20:22:39.122Z,11.30
2019-04-10T20:25:06.762Z,13.37
2019-04-10T20:27:50.017Z,13.97
2019-04-10T20:30:31.405Z,18.47
2019-04-10T20:32:58.748Z,11.83
2019-04-10T20:35:26.568Z,16.20
2019-04-10T20:37:54.029Z,17.17
2019-04-10T20:40:33.875Z,12.33
2019-04-10T20:43:02.587Z,17.53
2019-04-10T20:45:31.521Z,13.90
2019-04-10T20:48:00.182Z,14.27
2019-04-10T20:50:28.020Z,12.33
2019-04-10T20:52:55.802Z,12.07
2019-04-10T20:55:23.861Z,11.97
2019-04-10T20:57:52.086Z,15.10
2019-04-10T21:00:36.737Z,12.00
2019-04-10T21:03:04.011Z,13.00
2019-04-10T21:05:31.707Z,12.07
2019-04-10T21:07:59.884Z,19.33
2019-04-10T21:10:27.228Z,13.43
2019-04-10T21:12:54.685Z,14.10
2019-04-10T21:15:22.114Z,16.87
2019-04-10T21:17:50.690Z,11.57
2019-04-10T21:20:18.252Z,10.93
2019-04-10T21:22:45.643Z,11.67
2019-04-10T21:25:12.909Z,12.47
2019-04-10T21:27:40.524Z,17.60
2019-04-10T21:30:26.519Z,17.63
2019-04-10T21:33:00.627Z,11.27
2019-04-10T21:35:32.762Z,10.40
2019-04-10T21:38:00.329Z,14.10
2019-04-10T21:40:27.637Z,12.27
2019-04-10T21:42:56.029Z,13.10
2019-04-10T21:45:24.370Z,10.50
2019-04-10T21:47:52.330Z,14.90
2019-04-10T21:50:21.469Z,11.23
2019-04-10T21:52:49.769Z,13.80
2019-04-10T21:55:17.210Z,17.47
2019-04-10T21:57:44.827Z,13.03
2019-04-10T22:00:14.565Z,18.07
2019-04-10T22:02:42.144Z,10.77
2019-04-10T22:05:10.305Z,12.53
2019-04-10T22:07:53.688Z,12.57
2019-04-10T22:10:30.243Z,15.93
2019-04-10T22:12:57.504Z,12.70
2019-04-10T22:15:37.192Z,16.13
2019-04-10T22:18:05.144Z,20.80
2019-04-10T22:20:32.615Z,16.43
2019-04-10T22:22:59.944Z,14.37
2019-04-10T22:25:27.716Z,16.17
2019-04-10T22:27:56.224Z,15.73
2019-04-10T22:30:23.684Z,16.67
2019-04-10T22:32:51.342Z,19.57
2019-04-10T22:35:19.411Z,18.60
2019-04-10T22:37:46.887Z,19.40
2019-04-10T22:40:15.256Z,16.77
2019-04-10T22:42:46.753Z,15.80
2019-04-10T22:45:25.742Z,15.53
2019-04-10T22:47:52.688Z,18.33
2019-04-10T22:50:20.361Z,21.33
2019-04-10T22:52:48.690Z,24.40
2019-04-10T22:55:16.055Z,17.97
2019-04-10T22:57:44.191Z,15.97
2019-04-10T23:00:15.922Z,18.37
2019-04-10T23:02:44.186Z,20.60
2019-04-10T23:05:12.048Z,20.20
2019-04-10T23:07:39.384Z,19.37
2019-04-10T23:10:12.926Z,19.03
2019-04-10T23:12:50.183Z,23.07
2019-04-10T23:15:11.352Z,21.20
2019-04-10T23:17:39.054Z,20.20
2019-04-10T23:20:06.837Z,23.07
2019-04-10T23:22:34.254Z,18.03
2019-04-10T23:25:02.867Z,18.83
2019-04-10T23:27:30.209Z,27.73
2019-04-10T23:29:57.525Z,19.40
2019-04-10T23:32:24.815Z,21.27
2019-04-10T23:34:52.729Z,24.73
2019-04-10T23:37:20.513Z,18.27
2019-04-10T23:39:48.255Z,21.63
2019-04-10T23:42:15.918Z,20.83
2019-04-10T23:44:43.223Z,20.17
2019-04-10T23:47:11.708Z,18.60
2019-04-10T23:49:39.116Z,15.23
2019-04-10T23:52:07.550Z,17.13
2019-04-10T23:54:35.488Z,17.90
2019-04-10T23:57:03.177Z,19.13
2019-04-10T23:59:30.902Z,17.77
